sensor_id;sensor_type;location;lat;lon;timestamp;temperature;humidity
5846;DHT22;2949;50.778;7.094;2023-04-24T00:01:36;11.40;99.90
5846;DHT22;2949;50.778;7.094;2023-04-24T00:04:02;11.40;99.90
5846;DHT22;2949;50.778;7.094;2023-04-24T00:06:29;11.40;99.90
5846;DHT22;2949;50.778;7.094;2023-04-24T00:08:59;11.40;99.90
5846;DHT22;2949;50.778;7.094;2023-04-24T00:11:26;11.40;99.90
5846;DHT22;2949;50.778;7.094;2023-04-24T00:13:51;11.40;99.90
5846;DHT22;2949;50.778;7.094;2023-04-24T00:16:17;11.30;99.90
5846;DHT22;2949;50.778;7.094;2023-04-24T00:18:42;11.30;99.90
5846;DHT22;2949;50.778;7.094;2023-04-24T00:21:08;11.20;99.90
5846;DHT22;2949;50.778;7.094;2023-04-24T00:23:33;11.10;99.90
5846;DHT22;2949;50.778;7.094;2023-04-24T00:25:59;11.10;99.90
5846;DHT22;2949;50.778;7.094;2023-04-24T00:28:24;11.10;99.90
5846;DHT22;2949;50.778;7.094;2023-04-24T00:30:50;11.10;99.90
5846;DHT22;2949;50.778;7.094;2023-04-24T00:33:15;11.10;99.90
5846;DHT22;2949;50.778;7.094;2023-04-24T00:35:41;11.20;99.90
5846;DHT22;2949;50.778;7.094;2023-04-24T00:38:06;11.20;99.90
5846;DHT22;2949;50.778;7.094;2023-04-24T00:40:32;11.20;99.90
5846;DHT22;2949;50.778;7.094;2023-04-24T00:42:58;11.20;99.90
5846;DHT22;2949;50.778;7.094;2023-04-24T00:45:24;11.20;99.90
5846;DHT22;2949;50.778;7.094;2023-04-24T00:47:52;11.20;99.90
5846;DHT22;2949;50.778;7.094;2023-04-24T00:50:18;11.20;99.90
5846;DHT22;2949;50.778;7.094;2023-04-24T00:52:44;11.20;99.90
5846;DHT22;2949;50.778;7.094;2023-04-24T00:55:10;11.30;99.90
5846;DHT22;2949;50.778;7.094;2023-04-24T00:57:37;11.30;99.90
5846;DHT22;2949;50.778;7.094;2023-04-24T01:00:04;11.30;99.90
5846;DHT22;2949;50.778;7.094;2023-04-24T01:02:31;11.30;99.90
5846;DHT22;2949;50.778;7.094;2023-04-24T01:05:00;11.30;99.90
5846;DHT22;2949;50.778;7.094;2023-04-24T01:07:26;11.30;99.90
5846;DHT22;2949;50.778;7.094;2023-04-24T01:09:52;11.30;99.90
5846;DHT22;2949;50.778;7.094;2023-04-24T01:12:18;11.30;99.90
5846;DHT22;2949;50.778;7.094;2023-04-24T01:14:44;11.40;99.90
5846;DHT22;2949;50.778;7.094;2023-04-24T01:17:10;11.40;99.90
5846;DHT22;2949;50.778;7.094;2023-04-24T01:19:36;11.40;99.90
5846;DHT22;2949;50.778;7.094;2023-04-24T01:22:03;11.40;99.90
5846;DHT22;2949;50.778;7.094;2023-04-24T01:24:29;11.40;99.90
5846;DHT22;2949;50.778;7.094;2023-04-24T01:26:55;11.40;99.90
5846;DHT22;2949;50.778;7.094;2023-04-24T01:29:20;11.40;99.90
5846;DHT22;2949;50.778;7.094;2023-04-24T01:31:46;11.40;99.90
5846;DHT22;2949;50.778;7.094;2023-04-24T01:34:12;11.40;99.90
5846;DHT22;2949;50.778;7.094;2023-04-24T01:36:38;11.30;99.90
5846;DHT22;2949;50.778;7.094;2023-04-24T01:39:05;11.30;99.90
5846;DHT22;2949;50.778;7.094;2023-04-24T01:41:30;11.30;99.90
5846;DHT22;2949;50.778;7.094;2023-04-24T01:43:57;11.20;99.90
5846;DHT22;2949;50.778;7.094;2023-04-24T01:46:23;11.20;99.90
5846;DHT22;2949;50.778;7.094;2023-04-24T01:48:50;11.10;99.90
5846;DHT22;2949;50.778;7.094;2023-04-24T01:51:17;11.10;99.90
5846;DHT22;2949;50.778;7.094;2023-04-24T01:53:42;11.00;99.90
5846;DHT22;2949;50.778;7.094;2023-04-24T01:56:08;11.00;99.90
5846;DHT22;2949;50.778;7.094;2023-04-24T01:58:34;10.90;99.90
5846;DHT22;2949;50.778;7.094;2023-04-24T02:01:00;10.90;99.90
5846;DHT22;2949;50.778;7.094;2023-04-24T02:03:26;10.80;99.90
5846;DHT22;2949;50.778;7.094;2023-04-24T02:05:52;10.70;99.90
5846;DHT22;2949;50.778;7.094;2023-04-24T02:08:17;10.60;99.90
5846;DHT22;2949;50.778;7.094;2023-04-24T02:10:43;10.50;99.90
5846;DHT22;2949;50.778;7.094;2023-04-24T02:13:09;10.50;99.90
5846;DHT22;2949;50.778;7.094;2023-04-24T02:15:35;10.40;99.90
5846;DHT22;2949;50.778;7.094;2023-04-24T02:18:01;10.40;99.90
5846;DHT22;2949;50.778;7.094;2023-04-24T02:20:26;10.40;99.90
5846;DHT22;2949;50.778;7.094;2023-04-24T02:22:52;10.30;99.90
5846;DHT22;2949;50.778;7.094;2023-04-24T02:25:17;10.30;99.90
5846;DHT22;2949;50.778;7.094;2023-04-24T02:27:43;10.20;99.90
5846;DHT22;2949;50.778;7.094;2023-04-24T02:30:09;10.20;99.90
5846;DHT22;2949;50.778;7.094;2023-04-24T02:32:35;10.10;99.90
5846;DHT22;2949;50.778;7.094;2023-04-24T02:35:01;10.00;99.90
5846;DHT22;2949;50.778;7.094;2023-04-24T02:37:26;9.90;99.90
5846;DHT22;2949;50.778;7.094;2023-04-24T02:39:52;9.70;99.90
5846;DHT22;2949;50.778;7.094;2023-04-24T02:42:17;9.60;99.90
5846;DHT22;2949;50.778;7.094;2023-04-24T02:44:43;9.50;99.90
5846;DHT22;2949;50.778;7.094;2023-04-24T02:47:08;9.30;99.90
5846;DHT22;2949;50.778;7.094;2023-04-24T02:49:34;9.20;99.90
5846;DHT22;2949;50.778;7.094;2023-04-24T02:51:59;9.10;99.90
5846;DHT22;2949;50.778;7.094;2023-04-24T02:54:25;8.90;99.90
5846;DHT22;2949;50.778;7.094;2023-04-24T02:56:50;8.90;99.90
5846;DHT22;2949;50.778;7.094;2023-04-24T02:59:16;8.80;99.90
5846;DHT22;2949;50.778;7.094;2023-04-24T03:01:42;8.80;99.90
5846;DHT22;2949;50.778;7.094;2023-04-24T03:04:07;8.80;99.90
5846;DHT22;2949;50.778;7.094;2023-04-24T03:06:33;8.80;99.90
5846;DHT22;2949;50.778;7.094;2023-04-24T03:09:00;8.70;99.90
5846;DHT22;2949;50.778;7.094;2023-04-24T03:11:26;8.60;99.90
5846;DHT22;2949;50.778;7.094;2023-04-24T03:13:51;8.70;99.90
5846;DHT22;2949;50.778;7.094;2023-04-24T03:16:17;8.70;99.90
5846;DHT22;2949;50.778;7.094;2023-04-24T03:18:42;8.80;99.90
5846;DHT22;2949;50.778;7.094;2023-04-24T03:21:08;8.80;99.90
5846;DHT22;2949;50.778;7.094;2023-04-24T03:23:33;8.80;99.90
5846;DHT22;2949;50.778;7.094;2023-04-24T03:25:59;8.80;99.90
5846;DHT22;2949;50.778;7.094;2023-04-24T03:28:25;8.80;99.90
5846;DHT22;2949;50.778;7.094;2023-04-24T03:30:50;8.70;99.90
5846;DHT22;2949;50.778;7.094;2023-04-24T03:33:16;8.70;99.90
5846;DHT22;2949;50.778;7.094;2023-04-24T03:35:41;8.70;99.90
5846;DHT22;2949;50.778;7.094;2023-04-24T03:38:07;8.60;99.90
5846;DHT22;2949;50.778;7.094;2023-04-24T03:40:32;8.60;99.90
5846;DHT22;2949;50.778;7.094;2023-04-24T03:42:59;8.50;99.90
5846;DHT22;2949;50.778;7.094;2023-04-24T03:45:24;8.40;99.90
5846;DHT22;2949;50.778;7.094;2023-04-24T03:47:50;8.40;99.90
5846;DHT22;2949;50.778;7.094;2023-04-24T03:50:15;8.40;99.90
5846;DHT22;2949;50.778;7.094;2023-04-24T03:52:41;8.30;99.90
5846;DHT22;2949;50.778;7.094;2023-04-24T03:55:07;8.30;99.90
5846;DHT22;2949;50.778;7.094;2023-04-24T03:57:32;8.20;99.90
5846;DHT22;2949;50.778;7.094;2023-04-24T03:59:58;8.10;99.90
5846;DHT22;2949;50.778;7.094;2023-04-24T04:02:23;8.00;99.90
5846;DHT22;2949;50.778;7.094;2023-04-24T04:04:49;8.00;99.90
5846;DHT22;2949;50.778;7.094;2023-04-24T04:07:14;8.00;99.90
5846;DHT22;2949;50.778;7.094;2023-04-24T04:09:40;8.00;99.90
5846;DHT22;2949;50.778;7.094;2023-04-24T04:12:05;8.00;99.90
5846;DHT22;2949;50.778;7.094;2023-04-24T04:14:31;8.10;99.90
5846;DHT22;2949;50.778;7.094;2023-04-24T04:16:56;8.20;99.90
5846;DHT22;2949;50.778;7.094;2023-04-24T04:19:22;8.30;99.90
5846;DHT22;2949;50.778;7.094;2023-04-24T04:21:47;8.40;99.90
5846;DHT22;2949;50.778;7.094;2023-04-24T04:24:18;8.40;99.90
5846;DHT22;2949;50.778;7.094;2023-04-24T04:26:43;8.30;99.90
5846;DHT22;2949;50.778;7.094;2023-04-24T04:29:13;8.30;99.90
5846;DHT22;2949;50.778;7.094;2023-04-24T04:31:38;8.30;99.90
5846;DHT22;2949;50.778;7.094;2023-04-24T04:34:04;8.20;99.90
5846;DHT22;2949;50.778;7.094;2023-04-24T04:36:29;8.10;99.90
5846;DHT22;2949;50.778;7.094;2023-04-24T04:38:55;8.10;99.90
5846;DHT22;2949;50.778;7.094;2023-04-24T04:41:22;8.20;99.90
5846;DHT22;2949;50.778;7.094;2023-04-24T04:43:48;8.30;99.90
5846;DHT22;2949;50.778;7.094;2023-04-24T04:46:13;8.40;99.90
5846;DHT22;2949;50.778;7.094;2023-04-24T04:48:39;8.50;99.90
5846;DHT22;2949;50.778;7.094;2023-04-24T04:51:05;8.60;99.90
5846;DHT22;2949;50.778;7.094;2023-04-24T04:53:31;8.60;99.90
5846;DHT22;2949;50.778;7.094;2023-04-24T04:55:57;8.70;99.90
5846;DHT22;2949;50.778;7.094;2023-04-24T04:58:22;8.80;99.90
5846;DHT22;2949;50.778;7.094;2023-04-24T05:00:48;8.90;99.90
5846;DHT22;2949;50.778;7.094;2023-04-24T05:03:13;9.00;99.90
5846;DHT22;2949;50.778;7.094;2023-04-24T05:05:39;9.10;99.90
5846;DHT22;2949;50.778;7.094;2023-04-24T05:08:07;9.10;99.90
5846;DHT22;2949;50.778;7.094;2023-04-24T05:10:32;9.30;99.90
5846;DHT22;2949;50.778;7.094;2023-04-24T05:12:58;9.30;99.90
5846;DHT22;2949;50.778;7.094;2023-04-24T05:15:23;9.30;99.90
5846;DHT22;2949;50.778;7.094;2023-04-24T05:17:49;9.30;99.90
5846;DHT22;2949;50.778;7.094;2023-04-24T05:20:15;9.30;99.90
5846;DHT22;2949;50.778;7.094;2023-04-24T05:22:40;9.30;99.90
5846;DHT22;2949;50.778;7.094;2023-04-24T05:25:06;9.40;99.90
5846;DHT22;2949;50.778;7.094;2023-04-24T05:27:31;9.40;99.90
5846;DHT22;2949;50.778;7.094;2023-04-24T05:29:57;9.50;99.90
5846;DHT22;2949;50.778;7.094;2023-04-24T05:32:22;9.60;99.90
5846;DHT22;2949;50.778;7.094;2023-04-24T05:34:48;9.70;99.90
5846;DHT22;2949;50.778;7.094;2023-04-24T05:37:13;9.70;99.90
5846;DHT22;2949;50.778;7.094;2023-04-24T05:39:39;9.70;99.90
5846;DHT22;2949;50.778;7.094;2023-04-24T05:42:06;9.70;99.90
5846;DHT22;2949;50.778;7.094;2023-04-24T05:44:31;9.70;99.90
5846;DHT22;2949;50.778;7.094;2023-04-24T05:46:57;9.70;99.90
5846;DHT22;2949;50.778;7.094;2023-04-24T05:49:23;9.70;99.90
5846;DHT22;2949;50.778;7.094;2023-04-24T05:51:48;9.70;99.90
5846;DHT22;2949;50.778;7.094;2023-04-24T05:54:14;9.70;99.90
5846;DHT22;2949;50.778;7.094;2023-04-24T05:56:40;9.70;99.90
5846;DHT22;2949;50.778;7.094;2023-04-24T05:59:06;9.70;99.90
5846;DHT22;2949;50.778;7.094;2023-04-24T06:01:31;9.70;99.90
5846;DHT22;2949;50.778;7.094;2023-04-24T06:03:57;9.70;99.90
5846;DHT22;2949;50.778;7.094;2023-04-24T06:06:26;9.70;99.90
5846;DHT22;2949;50.778;7.094;2023-04-24T06:08:52;9.70;99.90
5846;DHT22;2949;50.778;7.094;2023-04-24T06:11:18;9.70;99.90
5846;DHT22;2949;50.778;7.094;2023-04-24T06:13:44;9.60;99.90
5846;DHT22;2949;50.778;7.094;2023-04-24T06:16:10;9.60;99.90
5846;DHT22;2949;50.778;7.094;2023-04-24T06:18:35;9.60;99.90
5846;DHT22;2949;50.778;7.094;2023-04-24T06:21:01;9.60;99.90
5846;DHT22;2949;50.778;7.094;2023-04-24T06:23:26;9.70;99.90
5846;DHT22;2949;50.778;7.094;2023-04-24T06:25:52;9.70;99.90
5846;DHT22;2949;50.778;7.094;2023-04-24T06:28:18;9.70;99.90
5846;DHT22;2949;50.778;7.094;2023-04-24T06:30:43;9.70;99.90
5846;DHT22;2949;50.778;7.094;2023-04-24T06:33:09;9.80;99.90
5846;DHT22;2949;50.778;7.094;2023-04-24T06:35:36;9.90;99.90
5846;DHT22;2949;50.778;7.094;2023-04-24T06:38:01;9.90;99.90
5846;DHT22;2949;50.778;7.094;2023-04-24T06:40:27;9.90;99.90
5846;DHT22;2949;50.778;7.094;2023-04-24T06:42:52;9.90;99.90
5846;DHT22;2949;50.778;7.094;2023-04-24T06:45:18;9.90;99.90
5846;DHT22;2949;50.778;7.094;2023-04-24T06:47:43;9.80;99.90
5846;DHT22;2949;50.778;7.094;2023-04-24T06:50:10;9.80;99.90
5846;DHT22;2949;50.778;7.094;2023-04-24T06:52:35;9.80;99.90
5846;DHT22;2949;50.778;7.094;2023-04-24T06:55:04;9.70;99.90
5846;DHT22;2949;50.778;7.094;2023-04-24T06:57:30;9.60;99.90
5846;DHT22;2949;50.778;7.094;2023-04-24T06:59:56;9.60;99.90
5846;DHT22;2949;50.778;7.094;2023-04-24T07:02:22;9.60;99.90
5846;DHT22;2949;50.778;7.094;2023-04-24T07:04:47;9.60;99.90
5846;DHT22;2949;50.778;7.094;2023-04-24T07:07:13;9.60;99.90
5846;DHT22;2949;50.778;7.094;2023-04-24T07:09:42;9.60;99.90
5846;DHT22;2949;50.778;7.094;2023-04-24T07:12:08;9.60;99.90
5846;DHT22;2949;50.778;7.094;2023-04-24T07:14:36;9.60;99.90
5846;DHT22;2949;50.778;7.094;2023-04-24T07:17:05;9.70;99.90
5846;DHT22;2949;50.778;7.094;2023-04-24T07:19:32;9.70;99.90
5846;DHT22;2949;50.778;7.094;2023-04-24T07:21:58;9.70;99.90
5846;DHT22;2949;50.778;7.094;2023-04-24T07:24:25;9.60;99.90
5846;DHT22;2949;50.778;7.094;2023-04-24T07:26:51;9.60;99.90
5846;DHT22;2949;50.778;7.094;2023-04-24T07:29:17;9.60;99.90
5846;DHT22;2949;50.778;7.094;2023-04-24T07:31:43;9.60;99.90
5846;DHT22;2949;50.778;7.094;2023-04-24T07:34:09;9.50;99.90
5846;DHT22;2949;50.778;7.094;2023-04-24T07:36:35;9.50;99.90
5846;DHT22;2949;50.778;7.094;2023-04-24T07:39:00;9.40;99.90
5846;DHT22;2949;50.778;7.094;2023-04-24T07:41:26;9.40;99.90
5846;DHT22;2949;50.778;7.094;2023-04-24T07:43:53;9.40;99.90
5846;DHT22;2949;50.778;7.094;2023-04-24T07:46:19;9.40;99.90
5846;DHT22;2949;50.778;7.094;2023-04-24T07:48:45;9.40;99.90
5846;DHT22;2949;50.778;7.094;2023-04-24T07:51:13;9.40;99.90
5846;DHT22;2949;50.778;7.094;2023-04-24T07:53:39;9.40;99.90
5846;DHT22;2949;50.778;7.094;2023-04-24T07:56:05;9.40;99.90
5846;DHT22;2949;50.778;7.094;2023-04-24T07:58:31;9.40;99.90
5846;DHT22;2949;50.778;7.094;2023-04-24T08:00:57;9.40;99.90
5846;DHT22;2949;50.778;7.094;2023-04-24T08:03:22;9.50;99.90
5846;DHT22;2949;50.778;7.094;2023-04-24T08:05:48;9.50;99.90
5846;DHT22;2949;50.778;7.094;2023-04-24T08:08:13;9.40;99.90
5846;DHT22;2949;50.778;7.094;2023-04-24T08:10:39;9.30;99.90
5846;DHT22;2949;50.778;7.094;2023-04-24T08:13:04;9.20;99.90
5846;DHT22;2949;50.778;7.094;2023-04-24T08:15:30;9.10;99.90
5846;DHT22;2949;50.778;7.094;2023-04-24T08:17:57;9.00;99.90
5846;DHT22;2949;50.778;7.094;2023-04-24T08:20:22;8.90;99.90
5846;DHT22;2949;50.778;7.094;2023-04-24T08:22:48;8.80;99.90
5846;DHT22;2949;50.778;7.094;2023-04-24T08:25:14;8.70;99.90
5846;DHT22;2949;50.778;7.094;2023-04-24T08:27:39;8.80;99.90
5846;DHT22;2949;50.778;7.094;2023-04-24T08:30:06;8.80;99.90
5846;DHT22;2949;50.778;7.094;2023-04-24T08:32:32;8.80;99.90
5846;DHT22;2949;50.778;7.094;2023-04-24T08:34:58;8.80;99.90
5846;DHT22;2949;50.778;7.094;2023-04-24T08:37:25;8.90;99.90
5846;DHT22;2949;50.778;7.094;2023-04-24T08:39:51;8.90;99.90
5846;DHT22;2949;50.778;7.094;2023-04-24T08:42:20;8.90;99.90
5846;DHT22;2949;50.778;7.094;2023-04-24T08:44:46;8.90;99.90
5846;DHT22;2949;50.778;7.094;2023-04-24T08:47:12;8.80;99.90
5846;DHT22;2949;50.778;7.094;2023-04-24T08:49:38;8.60;99.90
5846;DHT22;2949;50.778;7.094;2023-04-24T08:52:05;8.60;99.90
5846;DHT22;2949;50.778;7.094;2023-04-24T08:54:31;8.50;99.90
5846;DHT22;2949;50.778;7.094;2023-04-24T08:57:00;8.40;99.90
5846;DHT22;2949;50.778;7.094;2023-04-24T08:59:27;8.20;99.90
5846;DHT22;2949;50.778;7.094;2023-04-24T09:01:53;8.10;99.90
5846;DHT22;2949;50.778;7.094;2023-04-24T09:04:20;8.00;99.90
5846;DHT22;2949;50.778;7.094;2023-04-24T09:06:48;8.10;99.90
5846;DHT22;2949;50.778;7.094;2023-04-24T09:09:16;8.20;99.90
5846;DHT22;2949;50.778;7.094;2023-04-24T09:11:43;8.30;99.90
5846;DHT22;2949;50.778;7.094;2023-04-24T09:14:09;8.20;99.90
5846;DHT22;2949;50.778;7.094;2023-04-24T09:16:35;8.10;99.90
5846;DHT22;2949;50.778;7.094;2023-04-24T09:19:01;8.10;99.90
5846;DHT22;2949;50.778;7.094;2023-04-24T09:21:31;8.10;99.90
5846;DHT22;2949;50.778;7.094;2023-04-24T09:24:03;8.10;99.90
5846;DHT22;2949;50.778;7.094;2023-04-24T09:26:30;8.10;99.90
5846;DHT22;2949;50.778;7.094;2023-04-24T09:28:59;8.10;99.90
5846;DHT22;2949;50.778;7.094;2023-04-24T09:31:27;8.10;99.90
5846;DHT22;2949;50.778;7.094;2023-04-24T09:33:55;8.10;99.90
5846;DHT22;2949;50.778;7.094;2023-04-24T09:36:35;8.20;99.90
5846;DHT22;2949;50.778;7.094;2023-04-24T09:39:08;8.20;99.90
5846;DHT22;2949;50.778;7.094;2023-04-24T09:41:47;8.40;99.90
5846;DHT22;2949;50.778;7.094;2023-04-24T09:44:18;8.50;99.90
5846;DHT22;2949;50.778;7.094;2023-04-24T09:46:58;8.60;99.90
5846;DHT22;2949;50.778;7.094;2023-04-24T09:49:26;8.70;99.90
5846;DHT22;2949;50.778;7.094;2023-04-24T09:52:05;8.90;99.90
5846;DHT22;2949;50.778;7.094;2023-04-24T09:54:31;9.00;99.90
5846;DHT22;2949;50.778;7.094;2023-04-24T09:56:56;9.20;99.90
5846;DHT22;2949;50.778;7.094;2023-04-24T09:59:22;9.20;99.90
5846;DHT22;2949;50.778;7.094;2023-04-24T10:01:48;9.30;99.90
5846;DHT22;2949;50.778;7.094;2023-04-24T10:04:16;9.30;99.90
5846;DHT22;2949;50.778;7.094;2023-04-24T10:06:43;9.30;99.90
5846;DHT22;2949;50.778;7.094;2023-04-24T10:09:08;9.30;99.90
5846;DHT22;2949;50.778;7.094;2023-04-24T10:11:37;9.40;99.90
5846;DHT22;2949;50.778;7.094;2023-04-24T10:14:03;9.50;99.90
5846;DHT22;2949;50.778;7.094;2023-04-24T10:16:29;9.50;99.90
5846;DHT22;2949;50.778;7.094;2023-04-24T10:18:59;9.50;99.90
5846;DHT22;2949;50.778;7.094;2023-04-24T10:21:26;9.40;99.90
5846;DHT22;2949;50.778;7.094;2023-04-24T10:23:52;9.50;99.90
5846;DHT22;2949;50.778;7.094;2023-04-24T10:26:19;9.60;99.90
5846;DHT22;2949;50.778;7.094;2023-04-24T10:28:46;9.70;99.90
5846;DHT22;2949;50.778;7.094;2023-04-24T10:31:12;9.90;99.90
5846;DHT22;2949;50.778;7.094;2023-04-24T10:33:40;10.20;99.90
5846;DHT22;2949;50.778;7.094;2023-04-24T10:36:09;10.40;99.90
5846;DHT22;2949;50.778;7.094;2023-04-24T10:38:35;10.50;99.90
5846;DHT22;2949;50.778;7.094;2023-04-24T10:41:12;10.80;99.90
5846;DHT22;2949;50.778;7.094;2023-04-24T10:44:03;11.00;99.90
5846;DHT22;2949;50.778;7.094;2023-04-24T10:46:30;11.20;99.90
5846;DHT22;2949;50.778;7.094;2023-04-24T10:48:55;11.60;99.90
5846;DHT22;2949;50.778;7.094;2023-04-24T10:51:22;11.80;99.90
5846;DHT22;2949;50.778;7.094;2023-04-24T10:53:50;11.50;99.90
5846;DHT22;2949;50.778;7.094;2023-04-24T10:56:17;11.30;99.90
5846;DHT22;2949;50.778;7.094;2023-04-24T10:58:44;11.30;99.90
5846;DHT22;2949;50.778;7.094;2023-04-24T11:01:28;11.30;99.90
5846;DHT22;2949;50.778;7.094;2023-04-24T11:04:02;11.20;99.90
5846;DHT22;2949;50.778;7.094;2023-04-24T11:06:36;11.20;99.90
5846;DHT22;2949;50.778;7.094;2023-04-24T11:09:09;11.30;99.90
5846;DHT22;2949;50.778;7.094;2023-04-24T11:11:38;11.20;99.90
5846;DHT22;2949;50.778;7.094;2023-04-24T11:14:07;10.90;99.90
5846;DHT22;2949;50.778;7.094;2023-04-24T11:16:39;10.80;99.90
5846;DHT22;2949;50.778;7.094;2023-04-24T11:21:39;10.70;99.90
5846;DHT22;2949;50.778;7.094;2023-04-24T11:24:25;10.60;99.90
5846;DHT22;2949;50.778;7.094;2023-04-24T11:27:06;10.60;99.90
5846;DHT22;2949;50.778;7.094;2023-04-24T11:29:58;10.70;99.90
5846;DHT22;2949;50.778;7.094;2023-04-24T11:32:29;10.80;99.90
5846;DHT22;2949;50.778;7.094;2023-04-24T11:35:00;11.00;99.90
5846;DHT22;2949;50.778;7.094;2023-04-24T11:37:28;11.20;99.90
5846;DHT22;2949;50.778;7.094;2023-04-24T11:39:55;11.50;99.90
5846;DHT22;2949;50.778;7.094;2023-04-24T11:42:22;11.60;99.90
5846;DHT22;2949;50.778;7.094;2023-04-24T11:44:49;11.70;99.90
5846;DHT22;2949;50.778;7.094;2023-04-24T11:47:15;11.60;99.90
5846;DHT22;2949;50.778;7.094;2023-04-24T11:49:41;11.60;99.90
5846;DHT22;2949;50.778;7.094;2023-04-24T11:52:06;11.40;99.90
5846;DHT22;2949;50.778;7.094;2023-04-24T11:54:32;11.20;99.90
5846;DHT22;2949;50.778;7.094;2023-04-24T11:56:58;11.10;99.90
5846;DHT22;2949;50.778;7.094;2023-04-24T11:59:23;11.30;99.90
5846;DHT22;2949;50.778;7.094;2023-04-24T12:01:49;11.60;99.90
5846;DHT22;2949;50.778;7.094;2023-04-24T12:04:16;11.90;99.90
5846;DHT22;2949;50.778;7.094;2023-04-24T12:07:04;12.20;99.90
5846;DHT22;2949;50.778;7.094;2023-04-24T12:09:43;12.50;99.90
5846;DHT22;2949;50.778;7.094;2023-04-24T12:12:09;12.70;99.90
5846;DHT22;2949;50.778;7.094;2023-04-24T12:14:57;13.00;99.90
5846;DHT22;2949;50.778;7.094;2023-04-24T12:17:26;13.00;99.90
5846;DHT22;2949;50.778;7.094;2023-04-24T12:19:52;12.90;99.90
5846;DHT22;2949;50.778;7.094;2023-04-24T12:22:22;12.70;99.90
5846;DHT22;2949;50.778;7.094;2023-04-24T12:25:01;12.50;99.90
5846;DHT22;2949;50.778;7.094;2023-04-24T12:27:30;12.30;99.90
5846;DHT22;2949;50.778;7.094;2023-04-24T12:29:58;11.90;99.90
5846;DHT22;2949;50.778;7.094;2023-04-24T12:32:25;11.70;99.90
5846;DHT22;2949;50.778;7.094;2023-04-24T12:34:51;11.80;99.90
5846;DHT22;2949;50.778;7.094;2023-04-24T12:37:17;12.00;99.90
5846;DHT22;2949;50.778;7.094;2023-04-24T12:40:09;12.20;99.90
5846;DHT22;2949;50.778;7.094;2023-04-24T12:42:42;12.30;99.90
5846;DHT22;2949;50.778;7.094;2023-04-24T12:45:08;12.40;99.90
5846;DHT22;2949;50.778;7.094;2023-04-24T12:47:35;12.40;99.90
5846;DHT22;2949;50.778;7.094;2023-04-24T12:50:02;12.20;99.90
5846;DHT22;2949;50.778;7.094;2023-04-24T12:52:29;12.20;99.90
5846;DHT22;2949;50.778;7.094;2023-04-24T12:54:56;12.50;99.90
5846;DHT22;2949;50.778;7.094;2023-04-24T12:57:23;12.90;99.90
5846;DHT22;2949;50.778;7.094;2023-04-24T12:59:48;13.30;99.90
5846;DHT22;2949;50.778;7.094;2023-04-24T13:02:14;13.60;99.90
5846;DHT22;2949;50.778;7.094;2023-04-24T13:04:44;13.50;99.90
5846;DHT22;2949;50.778;7.094;2023-04-24T13:07:10;13.60;99.90
5846;DHT22;2949;50.778;7.094;2023-04-24T13:09:35;13.40;99.90
5846;DHT22;2949;50.778;7.094;2023-04-24T13:12:01;13.20;99.90
5846;DHT22;2949;50.778;7.094;2023-04-24T13:14:27;13.10;99.90
5846;DHT22;2949;50.778;7.094;2023-04-24T13:16:52;13.10;99.90
5846;DHT22;2949;50.778;7.094;2023-04-24T13:19:18;13.10;99.90
5846;DHT22;2949;50.778;7.094;2023-04-24T13:21:43;13.20;99.90
5846;DHT22;2949;50.778;7.094;2023-04-24T13:24:09;13.50;99.90
5846;DHT22;2949;50.778;7.094;2023-04-24T13:26:35;13.60;99.90
5846;DHT22;2949;50.778;7.094;2023-04-24T13:29:00;13.50;99.90
5846;DHT22;2949;50.778;7.094;2023-04-24T13:31:26;13.30;99.90
5846;DHT22;2949;50.778;7.094;2023-04-24T13:33:51;13.10;99.90
5846;DHT22;2949;50.778;7.094;2023-04-24T13:36:17;13.00;99.90
5846;DHT22;2949;50.778;7.094;2023-04-24T13:38:46;12.70;99.90
5846;DHT22;2949;50.778;7.094;2023-04-24T13:41:11;12.40;99.90
5846;DHT22;2949;50.778;7.094;2023-04-24T13:43:37;12.20;99.90
5846;DHT22;2949;50.778;7.094;2023-04-24T13:46:02;11.90;99.90
5846;DHT22;2949;50.778;7.094;2023-04-24T13:48:29;11.80;99.90
5846;DHT22;2949;50.778;7.094;2023-04-24T13:50:54;12.00;99.90
5846;DHT22;2949;50.778;7.094;2023-04-24T13:53:20;12.50;99.90
5846;DHT22;2949;50.778;7.094;2023-04-24T13:55:45;13.10;99.90
5846;DHT22;2949;50.778;7.094;2023-04-24T13:58:11;13.60;99.90
5846;DHT22;2949;50.778;7.094;2023-04-24T14:00:36;13.50;99.90
5846;DHT22;2949;50.778;7.094;2023-04-24T14:03:02;13.50;99.90
5846;DHT22;2949;50.778;7.094;2023-04-24T14:05:27;13.40;99.90
5846;DHT22;2949;50.778;7.094;2023-04-24T14:07:53;13.20;99.90
5846;DHT22;2949;50.778;7.094;2023-04-24T14:10:19;13.00;99.90
5846;DHT22;2949;50.778;7.094;2023-04-24T14:12:44;12.70;99.90
5846;DHT22;2949;50.778;7.094;2023-04-24T14:15:10;12.60;99.90
5846;DHT22;2949;50.778;7.094;2023-04-24T14:17:37;12.50;99.90
5846;DHT22;2949;50.778;7.094;2023-04-24T14:20:04;12.50;99.90
5846;DHT22;2949;50.778;7.094;2023-04-24T14:22:29;12.60;99.90
5846;DHT22;2949;50.778;7.094;2023-04-24T14:24:55;13.20;99.90
5846;DHT22;2949;50.778;7.094;2023-04-24T14:27:21;13.80;99.90
5846;DHT22;2949;50.778;7.094;2023-04-24T14:29:46;14.00;99.90
5846;DHT22;2949;50.778;7.094;2023-04-24T14:32:12;13.90;99.90
5846;DHT22;2949;50.778;7.094;2023-04-24T14:34:40;13.80;99.90
5846;DHT22;2949;50.778;7.094;2023-04-24T14:37:06;13.80;99.90
5846;DHT22;2949;50.778;7.094;2023-04-24T14:39:31;13.80;99.90
5846;DHT22;2949;50.778;7.094;2023-04-24T14:41:57;13.90;99.90
5846;DHT22;2949;50.778;7.094;2023-04-24T14:44:22;14.00;99.90
5846;DHT22;2949;50.778;7.094;2023-04-24T14:46:48;13.80;99.90
5846;DHT22;2949;50.778;7.094;2023-04-24T14:49:14;13.60;99.90
5846;DHT22;2949;50.778;7.094;2023-04-24T14:51:40;13.50;99.90
5846;DHT22;2949;50.778;7.094;2023-04-24T14:54:06;13.60;99.90
5846;DHT22;2949;50.778;7.094;2023-04-24T14:56:32;13.70;99.90
5846;DHT22;2949;50.778;7.094;2023-04-24T14:58:57;13.80;99.90
5846;DHT22;2949;50.778;7.094;2023-04-24T15:01:23;14.10;99.90
5846;DHT22;2949;50.778;7.094;2023-04-24T15:03:49;14.30;99.90
5846;DHT22;2949;50.778;7.094;2023-04-24T15:06:15;14.50;99.90
5846;DHT22;2949;50.778;7.094;2023-04-24T15:08:41;14.30;99.90
5846;DHT22;2949;50.778;7.094;2023-04-24T15:11:07;14.20;99.90
5846;DHT22;2949;50.778;7.094;2023-04-24T15:13:33;14.00;99.90
5846;DHT22;2949;50.778;7.094;2023-04-24T15:15:59;13.80;99.90
5846;DHT22;2949;50.778;7.094;2023-04-24T15:18:24;13.90;99.90
5846;DHT22;2949;50.778;7.094;2023-04-24T15:20:50;14.00;99.90
5846;DHT22;2949;50.778;7.094;2023-04-24T15:23:15;14.10;99.90
5846;DHT22;2949;50.778;7.094;2023-04-24T15:25:41;14.00;99.90
5846;DHT22;2949;50.778;7.094;2023-04-24T15:28:06;14.10;99.90
5846;DHT22;2949;50.778;7.094;2023-04-24T15:30:32;14.00;99.90
5846;DHT22;2949;50.778;7.094;2023-04-24T15:32:59;13.90;99.90
5846;DHT22;2949;50.778;7.094;2023-04-24T15:35:24;14.20;99.90
5846;DHT22;2949;50.778;7.094;2023-04-24T15:37:50;14.50;99.90
5846;DHT22;2949;50.778;7.094;2023-04-24T15:40:15;14.60;99.90
5846;DHT22;2949;50.778;7.094;2023-04-24T15:42:42;14.50;99.90
5846;DHT22;2949;50.778;7.094;2023-04-24T15:45:08;14.50;99.90
5846;DHT22;2949;50.778;7.094;2023-04-24T15:47:34;14.40;99.90
5846;DHT22;2949;50.778;7.094;2023-04-24T15:50:01;14.40;99.90
5846;DHT22;2949;50.778;7.094;2023-04-24T15:52:27;14.40;99.90
5846;DHT22;2949;50.778;7.094;2023-04-24T15:54:52;14.40;99.90
5846;DHT22;2949;50.778;7.094;2023-04-24T15:57:20;14.30;99.90
5846;DHT22;2949;50.778;7.094;2023-04-24T15:59:45;14.30;99.90
5846;DHT22;2949;50.778;7.094;2023-04-24T16:02:14;14.20;99.90
5846;DHT22;2949;50.778;7.094;2023-04-24T16:04:47;14.00;99.90
5846;DHT22;2949;50.778;7.094;2023-04-24T16:07:13;13.80;99.90
5846;DHT22;2949;50.778;7.094;2023-04-24T16:09:40;13.70;99.90